Nakhchivan — 9HHK8 — position and weather

sailwx.info

Track history (hours):
 
Tides and Currents Weather Stations Pressure Air Temp Water Temp Dewpoint Dewpoint Depression Visibility Wind Speed Wind Dir Waves Ship Positions

Nakhchivan

Last reported at 2018-May-23 20:20 UTC. Time now 2018-May-27 10:00 UTC.
Position N 45°12' E 036°28'.

Length 139 m; draft 4 m.

Type: Cargo ship. MMSI: 215983000.

Date/timePositionNaut miles runAvg speedWind from/ knotsBaromVisibWave heightAir tempDewpointWater temp
2018-May-23 20:20N 45°12' E 036°28'4 8.8
2018-May-23 19:54N 45°15' E 036°28'4 7.4
2018-May-23 19:25N 45°19' E 036°30'4 9.4
2018-May-23 19:00N 45°20' E 036°35'4 8.0
2018-May-23 18:30N 45°23' E 036°40'3 5.8
2018-May-23 18:01N 45°25' E 036°40'3 4.3
2018-May-23 17:17N 45°28' E 036°38'0 0.1
2018-May-23 16:53N 45°28' E 036°38'0 0.0
2018-May-23 16:25N 45°28' E 036°38'0 0.0
2018-May-23 15:52N 45°28' E 036°38'0 0.0
2018-May-23 15:27N 45°28' E 036°38'  
2018-May-16 16:46N 45°31' E 036°46'3 9.5
2018-May-16 16:30N 45°29' E 036°43'5 9.3
2018-May-16 16:00N 45°24' E 036°41'4 8.0
2018-May-16 15:30N 45°21' E 036°39'4 7.9
2018-May-16 15:00N 45°19' E 036°34'4 8.3
2018-May-16 14:30N 45°17' E 036°29'3 6.8
2018-May-16 14:00N 45°14' E 036°29'2 3.5
2018-May-16 13:29N 45°12' E 036°29'  
Track history (hours):
 
Tides and Currents Weather Stations Pressure Air Temp Water Temp Dewpoint Dewpoint Depression Visibility Wind Speed Wind Dir Waves Ship Positions

Nakhchivan

Last reported at 2018-May-23 20:20 UTC. Time now 2018-May-27 10:00 UTC.
Position N 45°12' E 036°28'.

Length 139 m; draft 4 m.

Type: Cargo ship. MMSI: 215983000.

Date/timePositionNaut miles runAvg speedWind from/ knotsBaromVisibWave heightAir tempDewpointWater temp
2018-May-23 20:20N 45°12' E 036°28'4 8.8
2018-May-23 19:54N 45°15' E 036°28'4 7.4
2018-May-23 19:25N 45°19' E 036°30'4 9.4
2018-May-23 19:00N 45°20' E 036°35'4 8.0
2018-May-23 18:30N 45°23' E 036°40'3 5.8
2018-May-23 18:01N 45°25' E 036°40'3 4.3
2018-May-23 17:17N 45°28' E 036°38'0 0.1
2018-May-23 16:53N 45°28' E 036°38'0 0.0
2018-May-23 16:25N 45°28' E 036°38'0 0.0
2018-May-23 15:52N 45°28' E 036°38'0 0.0
2018-May-23 15:27N 45°28' E 036°38'  
2018-May-16 16:46N 45°31' E 036°46'3 9.5
2018-May-16 16:30N 45°29' E 036°43'5 9.3
2018-May-16 16:00N 45°24' E 036°41'4 8.0
2018-May-16 15:30N 45°21' E 036°39'4 7.9
2018-May-16 15:00N 45°19' E 036°34'4 8.3
2018-May-16 14:30N 45°17' E 036°29'3 6.8
2018-May-16 14:00N 45°14' E 036°29'2 3.5
2018-May-16 13:29N 45°12' E 036°29'  

Dump ship's entire track history